Time;durP1;ratioP1;P1;durP2;ratioP2;P2;SDS_P1;SDS_P2;PMS_P1;PMS_P2;Temp;Humidity;BMP_temperature;BMP_pressure;BME280_temperature;BME280_humidity;BME280_pressure;Samples;Min_cycle;Max_cycle;Signal;HPM_P1;HPM_P2
2023/03/15 00:01:22;;;;;;;0.68;0.50;;;;;;;14.00;39.45;99818.28;5024953;28;20111;-73
2023/03/15 00:03:50;;;;;;;0.77;0.30;;;;;;;14.08;40.13;99815.69;5025661;28;20054;-74
2023/03/15 00:06:19;;;;;;;1.42;0.40;;;;;;;14.12;41.33;99814.81;5025514;28;20049;-74
2023/03/15 00:08:47;;;;;;;0.68;0.40;;;;;;;14.11;41.03;99815.69;5026242;28;20096;-78
2023/03/15 00:11:16;;;;;;;0.70;0.40;;;;;;;14.14;39.53;99814.81;5024996;28;20050;-75
2023/03/15 00:13:45;;;;;;;2.15;0.57;;;;;;;14.13;39.04;99813.97;5023837;28;20096;-75
2023/03/15 00:16:17;;;;;;;1.08;0.30;;;;;;;14.01;38.19;99807.00;5025406;28;20111;-76
2023/03/15 00:18:47;;;;;;;0.37;0.20;;;;;;;14.00;39.04;99813.09;5024998;28;20045;-77
2023/03/15 00:21:16;;;;;;;0.60;0.30;;;;;;;13.94;39.31;99807.88;5025515;28;20344;-77
2023/03/15 00:23:45;;;;;;;1.75;0.40;;;;;;;13.87;41.41;99811.34;5024993;28;20503;-75
2023/03/15 00:26:14;;;;;;;1.50;0.47;;;;;;;13.82;41.27;99807.88;5026067;28;20574;-74
2023/03/15 00:28:42;;;;;;;0.10;0.10;;;;;;;13.78;38.62;99809.59;5024047;28;20046;-74
2023/03/15 00:31:16;;;;;;;1.50;0.22;;;;;;;13.75;39.23;99812.19;5024077;28;20123;-75
2023/03/15 00:33:46;;;;;;;0.90;0.40;;;;;;;13.71;38.36;99809.59;5025215;28;20522;-80
2023/03/15 00:36:15;;;;;;;0.20;0.20;;;;;;;13.67;39.37;99811.28;5027899;28;20107;-77
2023/03/15 00:38:44;;;;;;;0.45;0.20;;;;;;;13.67;38.86;99820.84;5025811;28;20598;-78
2023/03/15 00:41:14;;;;;;;0.50;0.50;;;;;;;13.69;38.34;99819.97;5029202;28;20068;-77
2023/03/15 00:43:43;;;;;;;3.40;0.50;;;;;;;13.72;39.20;99816.50;5029471;28;20050;-73
2023/03/15 00:46:12;;;;;;;1.23;0.32;;;;;;;13.75;39.62;99817.41;5029613;28;20049;-73
2023/03/15 00:48:41;;;;;;;0.50;0.20;;;;;;;13.77;37.92;99820.00;5029022;28;20057;-75
2023/03/15 00:51:13;;;;;;;1.27;0.88;;;;;;;13.83;37.75;99822.59;5028537;28;20049;-73
2023/03/15 00:53:44;;;;;;;1.48;0.40;;;;;;;13.85;39.36;99822.59;5028144;28;20057;-75
2023/03/15 00:56:14;;;;;;;0.55;0.40;;;;;;;13.85;38.47;99822.59;5029741;28;20045;-73
2023/03/15 00:58:43;;;;;;;0.73;0.40;;;;;;;13.83;39.21;99822.59;5030833;28;20076;-75
2023/03/15 01:01:14;;;;;;;2.83;0.40;;;;;;;13.83;38.00;99820.88;5029801;28;20124;-78
2023/03/15 01:03:43;;;;;;;1.38;0.60;;;;;;;13.84;36.61;99824.34;5026823;28;20073;-77
2023/03/15 01:06:15;;;;;;;0.95;0.32;;;;;;;13.85;37.11;99831.25;5028469;28;20557;-75
2023/03/15 01:08:44;;;;;;;0.57;0.30;;;;;;;13.80;37.20;99827.81;5029049;28;20052;-77
2023/03/15 01:11:16;;;;;;;0.40;0.22;;;;;;;13.69;37.21;99832.09;5027922;28;20053;-78
2023/03/15 01:13:44;;;;;;;2.80;0.33;;;;;;;13.64;38.79;99828.63;5021093;28;20056;-78
2023/03/15 01:16:14;;;;;;;5.05;0.70;;;;;;;13.51;38.59;99832.94;5024529;28;21129;-78
2023/03/15 01:18:50;;;;;;;1.05;0.40;;;;;;;13.51;37.84;99839.00;5023083;28;20053;-82
2023/03/15 01:21:21;;;;;;;0.82;0.43;;;;;;;13.48;38.20;99835.53;5021540;28;20051;-79
2023/03/15 01:23:50;;;;;;;0.93;0.52;;;;;;;13.43;38.94;99838.13;5027338;28;20060;-79
2023/03/15 01:26:19;;;;;;;3.83;0.60;;;;;;;13.37;40.87;99845.88;5027526;28;20049;-77
2023/03/15 01:28:48;;;;;;;0.90;0.32;;;;;;;13.31;40.85;99844.13;5029125;28;20099;-76
2023/03/15 01:31:21;;;;;;;0.55;0.32;;;;;;;13.24;41.13;99850.16;5027301;28;20103;-76
2023/03/15 01:33:49;;;;;;;1.15;0.77;;;;;;;13.17;41.36;99854.44;5029569;28;20099;-75
2023/03/15 01:36:19;;;;;;;0.68;0.22;;;;;;;13.13;42.24;99852.69;5024835;28;20053;-78
2023/03/15 01:38:49;;;;;;;0.25;0.25;;;;;;;13.07;41.96;99857.84;5025649;28;20673;-80
2023/03/15 01:41:24;;;;;;;1.95;0.22;;;;;;;13.00;41.27;99861.28;5024487;28;20093;-78
2023/03/15 01:43:53;;;;;;;1.63;0.30;;;;;;;12.90;42.27;99869.88;5028532;28;20125;-75
2023/03/15 01:46:33;;;;;;;0.65;0.20;;;;;;;12.79;42.30;99873.28;5028057;28;20127;-74
2023/03/15 01:49:06;;;;;;;0.60;0.30;;;;;;;12.72;42.46;99876.69;5029150;28;20059;-73
2023/03/15 01:51:40;;;;;;;0.52;0.17;;;;;;;12.63;42.24;99876.63;5027322;28;20136;-73
2023/03/15 01:54:13;;;;;;;0.98;0.35;;;;;;;12.56;45.51;99877.44;5029991;28;20045;-73
2023/03/15 01:56:45;;;;;;;1.02;0.50;;;;;;;12.49;43.50;99883.44;5024151;28;20063;-74
2023/03/15 01:59:17;;;;;;;0.88;0.32;;;;;;;12.39;43.70;99892.00;5027697;28;20052;-73
2023/03/15 02:01:47;;;;;;;1.75;0.73;;;;;;;12.30;43.00;99897.97;5026624;28;20052;-74
2023/03/15 02:04:23;;;;;;;1.02;0.40;;;;;;;12.22;43.07;99910.03;5029003;28;20056;-75
2023/03/15 02:06:57;;;;;;;1.65;0.40;;;;;;;12.14;43.79;99913.41;5024001;28;20095;-73
2023/03/15 02:09:33;;;;;;;1.90;0.68;;;;;;;12.05;44.12;99920.22;5017626;28;20719;-73
2023/03/15 02:12:05;;;;;;;1.67;0.50;;;;;;;11.97;45.48;99924.47;5026372;28;20049;-73
2023/03/15 02:14:34;;;;;;;1.65;0.70;;;;;;;11.82;45.73;99928.59;5026614;28;20053;-73
2023/03/15 02:17:03;;;;;;;1.95;0.50;;;;;;;11.69;45.77;99929.31;5024310;28;20057;-74
2023/03/15 02:19:42;;;;;;;1.25;0.50;;;;;;;11.60;45.72;99932.66;5027595;28;20049;-74
2023/03/15 02:22:23;;;;;;;0.65;0.45;;;;;;;11.53;45.80;99934.31;5021714;28;20132;-74
2023/03/15 02:24:59;;;;;;;3.75;0.63;;;;;;;11.45;45.86;99941.13;5035485;28;20077;-73
2023/03/15 02:27:33;;;;;;;1.15;0.50;;;;;;;11.38;46.04;99944.47;5023712;28;20045;-74
2023/03/15 02:30:03;;;;;;;1.38;0.60;;;;;;;11.30;46.20;99954.72;5027232;28;20057;-73
2023/03/15 02:32:32;;;;;;;1.15;0.60;;;;;;;11.23;47.47;99957.22;5027142;28;20104;-74
2023/03/15 02:35:01;;;;;;;2.42;0.82;;;;;;;11.16;47.67;99963.16;5026051;28;20104;-75
2023/03/15 02:37:29;;;;;;;1.92;0.70;;;;;;;11.01;49.17;99954.31;5025696;28;20057;-77
2023/03/15 02:39:58;;;;;;;2.47;0.70;;;;;;;10.96;48.54;99968.03;5028807;28;20057;-76
2023/03/15 02:42:27;;;;;;;2.17;0.75;;;;;;;10.85;48.93;99978.22;5026339;28;20049;-77
2023/03/15 02:44:58;;;;;;;2.42;0.70;;;;;;;10.78;50.47;99979.84;5026477;28;20667;-77
2023/03/15 02:47:30;;;;;;;1.98;0.63;;;;;;;10.71;51.52;99984.91;5034150;28;20046;-75
2023/03/15 02:49:59;;;;;;;2.55;0.93;;;;;;;10.62;51.35;100001.13;5027213;28;20048;-76
2023/03/15 02:52:28;;;;;;;1.40;1.00;;;;;;;10.51;50.87;100011.28;5026226;28;20053;-75
2023/03/15 02:54:56;;;;;;;1.45;0.90;;;;;;;10.39;50.65;100018.81;5020153;28;20491;-76
2023/03/15 02:57:25;;;;;;;1.60;0.73;;;;;;;10.30;52.05;100029.00;5037811;28;20045;-75
2023/03/15 02:59:54;;;;;;;2.17;0.85;;;;;;;10.18;53.22;100027.88;5021169;28;20103;-76
2023/03/15 03:02:24;;;;;;;1.38;0.50;;;;;;;10.09;54.63;100032.88;5026193;28;20041;-77
2023/03/15 03:04:53;;;;;;;2.60;0.60;;;;;;;9.99;54.81;100038.72;5023443;28;20045;-75
2023/03/15 03:07:22;;;;;;;1.63;0.60;;;;;;;9.93;55.15;100048.91;5023535;28;20115;-75
2023/03/15 03:09:50;;;;;;;2.08;0.60;;;;;;;9.87;56.49;100052.22;5023851;28;20060;-74
2023/03/15 03:12:19;;;;;;;3.05;0.80;;;;;;;9.82;56.74;100059.88;5029213;28;20526;-74
2023/03/15 03:14:47;;;;;;;0.82;0.45;;;;;;;9.73;57.61;100064.84;5026138;28;20049;-76
2023/03/15 03:17:16;;;;;;;0.93;0.38;;;;;;;9.67;58.05;100067.31;5032072;28;20048;-73
2023/03/15 03:19:46;;;;;;;3.00;0.50;;;;;;;9.60;57.95;100071.47;5023317;28;20049;-73
2023/03/15 03:22:15;;;;;;;0.65;0.38;;;;;;;9.54;57.95;100080.81;5023112;28;20111;-73
2023/03/15 03:24:44;;;;;;;1.42;0.47;;;;;;;9.48;58.15;100086.69;5028396;28;20061;-74
2023/03/15 03:27:14;;;;;;;3.00;0.73;;;;;;;9.42;58.61;100092.59;5021107;28;20053;-74
2023/03/15 03:29:43;;;;;;;0.65;0.35;;;;;;;9.35;59.24;100095.88;5028461;28;20739;-74
2023/03/15 03:32:11;;;;;;;1.27;0.50;;;;;;;9.32;58.85;100100.06;5028536;28;20052;-73
2023/03/15 03:34:40;;;;;;;2.25;0.43;;;;;;;9.27;59.50;100118.03;5021718;28;20053;-74
2023/03/15 03:37:10;;;;;;;0.55;0.30;;;;;;;9.20;60.24;100121.31;5025835;28;20053;-72
2023/03/15 03:39:39;;;;;;;1.55;0.50;;;;;;;9.15;60.27;100123.78;5024511;28;20050;-73
2023/03/15 03:42:07;;;;;;;1.08;0.43;;;;;;;9.11;60.58;100123.66;5027538;28;20064;-74
2023/03/15 03:44:36;;;;;;;0.85;0.43;;;;;;;9.04;60.55;100124.34;5023961;28;20549;-74
2023/03/15 03:47:05;;;;;;;1.48;0.50;;;;;;;9.00;60.98;100134.59;5023242;28;20175;-74
2023/03/15 03:49:34;;;;;;;2.67;0.55;;;;;;;8.96;61.46;100145.66;5020696;28;20045;-76
2023/03/15 03:52:02;;;;;;;0.93;0.32;;;;;;;8.91;61.60;100149.84;5023022;28;20057;-76
2023/03/15 03:54:33;;;;;;;0.75;0.60;;;;;;;8.85;61.47;100154.81;5024115;28;20053;-76
2023/03/15 03:57:01;;;;;;;0.82;0.63;;;;;;;8.81;62.13;100160.72;5024748;28;20054;-73
2023/03/15 03:59:30;;;;;;;0.30;0.20;;;;;;;8.77;62.56;100171.78;5028304;28;20049;-76
2023/03/15 04:01:58;;;;;;;0.52;0.30;;;;;;;8.74;63.02;100171.72;5026258;28;20057;-77
2023/03/15 04:04:29;;;;;;;1.80;0.65;;;;;;;8.71;63.20;100182.81;5025534;28;20048;-77
2023/03/15 04:06:57;;;;;;;1.25;0.50;;;;;;;8.69;62.23;100193.94;5021099;28;20049;-76
2023/03/15 04:09:26;;;;;;;1.85;0.55;;;;;;;8.66;62.89;100209.28;5024573;28;20553;-77
2023/03/15 04:11:56;;;;;;;2.35;0.63;;;;;;;8.60;64.89;100210.00;5026532;28;20087;-76
2023/03/15 04:14:24;;;;;;;1.17;0.60;;;;;;;8.49;67.31;100226.88;5021578;28;20049;-75
2023/03/15 04:16:53;;;;;;;2.60;0.50;;;;;;;8.36;67.01;100231.66;5030463;28;20049;-76
2023/03/15 04:19:22;;;;;;;1.35;0.52;;;;;;;8.26;67.31;100237.34;5031671;28;20050;-77
2023/03/15 04:21:51;;;;;;;2.45;0.40;;;;;;;8.15;68.06;100254.16;5032037;28;20073;-77
2023/03/15 04:24:20;;;;;;;1.27;0.70;;;;;;;8.09;67.60;100260.03;5028786;28;20048;-76
2023/03/15 04:26:48;;;;;;;4.47;0.65;;;;;;;8.08;66.96;100265.13;5029033;28;20037;-77
2023/03/15 04:29:18;;;;;;;0.40;0.40;;;;;;;8.01;68.13;100264.03;5030046;28;20690;-77
2023/03/15 04:31:47;;;;;;;0.60;0.45;;;;;;;7.97;67.78;100267.34;5029574;28;20084;-79
2023/03/15 04:34:16;;;;;;;6.47;0.60;;;;;;;7.98;68.21;100272.56;5031163;28;20178;-76
2023/03/15 04:36:44;;;;;;;1.50;0.60;;;;;;;7.98;70.32;100282.00;5029461;28;20463;-77
2023/03/15 04:39:13;;;;;;;1.42;0.50;;;;;;;7.95;70.92;100282.78;5030228;28;20795;-77
2023/03/15 04:41:41;;;;;;;1.67;0.35;;;;;;;7.89;69.14;100289.41;5032582;28;20917;-77
2023/03/15 04:44:10;;;;;;;2.25;0.50;;;;;;;7.78;69.64;100291.63;5030667;28;20121;-77
2023/03/15 04:46:40;;;;;;;2.45;0.60;;;;;;;7.74;70.37;100295.81;5028688;28;20063;-73
2023/03/15 04:49:09;;;;;;;0.50;0.40;;;;;;;7.75;70.89;100296.69;5027700;28;20163;-77
2023/03/15 04:51:37;;;;;;;5.13;0.70;;;;;;;7.75;70.53;100302.72;5027174;28;20045;-74
2023/03/15 04:54:06;;;;;;;2.13;0.63;;;;;;;7.73;70.02;100306.94;5029578;28;20049;-74
2023/03/15 04:56:36;;;;;;;0.70;0.40;;;;;;;7.73;70.04;100309.50;5029586;28;20051;-74
2023/03/15 04:59:04;;;;;;;5.22;1.02;;;;;;;7.72;70.16;100318.06;5034670;28;20052;-75
2023/03/15 05:01:33;;;;;;;2.40;0.73;;;;;;;7.64;72.65;100322.06;5029786;28;20732;-75
2023/03/15 05:04:03;;;;;;;1.20;0.30;;;;;;;7.55;74.04;100327.78;5030551;28;20045;-74
2023/03/15 05:06:32;;;;;;;4.88;0.55;;;;;;;7.51;74.19;100333.66;5030410;28;20038;-73
2023/03/15 05:09:00;;;;;;;1.33;0.30;;;;;;;7.46;74.36;100331.72;5027439;28;20562;-73
2023/03/15 05:11:29;;;;;;;1.17;0.60;;;;;;;7.44;74.27;100341.09;5026946;28;20135;-75
2023/03/15 05:13:58;;;;;;;0.57;0.32;;;;;;;7.41;72.75;100348.72;5028547;28;20061;-75
2023/03/15 05:16:26;;;;;;;0.75;0.30;;;;;;;7.38;77.08;100348.63;5026268;28;20057;-75
2023/03/15 05:18:55;;;;;;;0.45;0.30;;;;;;;7.32;76.04;100365.56;5028435;28;20076;-75
2023/03/15 05:21:26;;;;;;;2.30;0.93;;;;;;;7.31;74.74;100366.41;5029394;28;20093;-75
2023/03/15 05:23:54;;;;;;;1.27;0.50;;;;;;;7.28;75.68;100381.75;5030004;28;20057;-74
2023/03/15 05:26:23;;;;;;;1.00;0.60;;;;;;;7.25;77.69;100388.47;5027336;28;20045;-74
2023/03/15 05:28:52;;;;;;;0.50;0.30;;;;;;;7.17;77.15;100395.91;5028214;28;20045;-74
2023/03/15 05:31:20;;;;;;;3.08;0.60;;;;;;;7.12;78.34;100399.97;5029041;28;20486;-72
2023/03/15 05:33:49;;;;;;;1.83;0.38;;;;;;;7.03;80.62;100400.53;5029207;28;20131;-74
2023/03/15 05:36:17;;;;;;;0.82;0.43;;;;;;;6.92;82.48;100405.25;5029782;28;20049;-74
2023/03/15 05:38:47;;;;;;;1.20;0.43;;;;;;;6.86;83.45;100417.88;5030716;28;20117;-74
2023/03/15 05:41:16;;;;;;;2.20;0.50;;;;;;;6.77;85.24;100420.09;5030770;28;20054;-75
2023/03/15 05:43:45;;;;;;;1.38;0.30;;;;;;;6.76;84.34;100427.72;5029387;28;20049;-74
2023/03/15 05:46:14;;;;;;;0.70;0.35;;;;;;;6.71;83.55;100435.25;5030927;28;20048;-73
2023/03/15 05:48:43;;;;;;;0.47;0.43;;;;;;;6.59;81.86;100445.06;5010250;28;20054;-73
2023/03/15 05:51:12;;;;;;;0.82;0.60;;;;;;;6.53;81.86;100437.09;5010045;28;20041;-74
2023/03/15 05:53:40;;;;;;;2.55;0.57;;;;;;;6.50;81.68;100449.03;5010115;28;20084;-73
2023/03/15 05:56:11;;;;;;;2.15;0.88;;;;;;;6.44;81.74;100453.03;5008994;28;20053;-74
2023/03/15 05:58:39;;;;;;;2.60;0.63;;;;;;;6.43;82.01;100452.13;5008809;28;20042;-74
2023/03/15 06:01:08;;;;;;;1.67;0.57;;;;;;;6.42;81.75;100459.81;5010987;28;20053;-74
2023/03/15 06:03:36;;;;;;;1.17;0.73;;;;;;;6.40;82.33;100464.88;5009975;28;20048;-73
2023/03/15 06:06:05;;;;;;;1.55;0.63;;;;;;;6.40;81.31;100475.16;5008998;28;20069;-73
2023/03/15 06:08:34;;;;;;;0.95;0.55;;;;;;;6.38;80.97;100474.22;5009731;28;20057;-74
2023/03/15 06:11:02;;;;;;;2.28;0.60;;;;;;;6.39;81.49;100483.69;5008324;28;20073;-74
2023/03/15 06:13:32;;;;;;;1.27;0.70;;;;;;;6.37;81.31;100489.56;5006883;28;20054;-74
2023/03/15 06:16:01;;;;;;;1.35;0.75;;;;;;;6.34;80.71;100498.00;5009968;28;20549;-74
2023/03/15 06:18:29;;;;;;;2.72;0.65;;;;;;;6.19;84.61;100494.81;5006917;28;20153;-74
2023/03/15 06:20:58;;;;;;;3.78;0.60;;;;;;;6.02;86.61;100499.22;5009929;28;20054;-74
2023/03/15 06:23:27;;;;;;;0.75;0.45;;;;;;;5.93;86.92;100516.75;5008737;28;20045;-74
2023/03/15 06:25:55;;;;;;;1.95;0.63;;;;;;;5.85;86.76;100521.56;5007476;28;20050;-75
2023/03/15 06:28:24;;;;;;;1.63;0.82;;;;;;;5.86;85.88;100523.28;5008859;28;20496;-74
2023/03/15 06:30:54;;;;;;;1.95;0.80;;;;;;;5.85;85.54;100525.00;5007675;28;20045;-75
2023/03/15 06:33:23;;;;;;;1.70;0.88;;;;;;;5.87;85.02;100522.50;5009021;28;20472;-74
2023/03/15 06:35:51;;;;;;;0.82;0.63;;;;;;;5.85;84.52;100531.81;5008801;28;20107;-74
2023/03/15 06:38:20;;;;;;;1.90;0.80;;;;;;;5.75;85.80;100539.91;5009661;28;20104;-73
2023/03/15 06:40:48;;;;;;;1.10;0.50;;;;;;;5.64;86.17;100553.16;5003691;28;20061;-73
2023/03/15 06:43:18;;;;;;;5.35;1.10;;;;;;;5.60;84.86;100560.63;5009681;28;20049;-75
2023/03/15 06:45:47;;;;;;;1.88;0.50;;;;;;;5.59;84.35;100564.91;5005895;28;20053;-75
2023/03/15 06:48:17;;;;;;;0.80;0.50;;;;;;;5.56;85.01;100564.72;5025962;28;20058;-72
2023/03/15 06:50:46;;;;;;;1.30;0.55;;;;;;;5.54;85.31;100568.03;5027229;28;20111;-74
2023/03/15 06:53:15;;;;;;;2.60;0.60;;;;;;;5.53;85.19;100572.28;5025627;28;20080;-74
2023/03/15 06:55:44;;;;;;;2.00;0.98;;;;;;;5.50;85.30;100579.88;5026581;28;20053;-74
2023/03/15 06:58:13;;;;;;;1.58;0.85;;;;;;;5.49;85.66;100587.47;5025722;28;20057;-73
2023/03/15 07:00:41;;;;;;;2.55;0.88;;;;;;;5.40;85.86;100596.50;5026061;28;20049;-74
2023/03/15 07:03:10;;;;;;;4.70;0.90;;;;;;;5.31;87.23;100603.75;5025875;28;20103;-74
2023/03/15 07:05:40;;;;;;;2.78;0.82;;;;;;;5.22;86.77;100601.66;5027637;28;20100;-74
2023/03/15 07:08:09;;;;;;;1.73;0.50;;;;;;;5.18;86.74;100616.81;5021339;28;20495;-73
2023/03/15 07:10:37;;;;;;;2.30;0.70;;;;;;;5.17;87.47;100615.91;5026103;28;20590;-74
2023/03/15 07:13:06;;;;;;;1.58;0.80;;;;;;;5.18;87.80;100627.94;5027232;28;20053;-74
2023/03/15 07:15:36;;;;;;;1.38;0.52;;;;;;;5.17;87.37;100630.41;5021839;28;20057;-74
2023/03/15 07:18:05;;;;;;;2.60;0.82;;;;;;;5.14;86.63;100625.16;5024280;28;20134;-73
2023/03/15 07:20:33;;;;;;;4.10;0.60;;;;;;;5.12;86.32;100631.88;5027399;28;20041;-74
2023/03/15 07:23:03;;;;;;;0.73;0.43;;;;;;;5.03;87.89;100642.56;5026490;28;20080;-74
2023/03/15 07:25:38;;;;;;;2.08;0.60;;;;;;;4.98;88.44;100650.03;5026948;28;20053;-73
2023/03/15 07:28:06;;;;;;;1.92;0.82;;;;;;;4.93;89.28;100658.31;5026316;28;20049;-73
2023/03/15 07:30:36;;;;;;;1.58;0.70;;;;;;;4.90;89.40;100656.47;5027354;28;20045;-73
2023/03/15 07:33:04;;;;;;;0.90;0.60;;;;;;;4.90;88.42;100668.38;5024594;28;20049;-73
2023/03/15 07:35:33;;;;;;;2.10;0.85;;;;;;;4.88;88.21;100678.59;5021988;28;20060;-74
2023/03/15 07:38:03;;;;;;;1.48;0.70;;;;;;;4.85;87.95;100685.22;5028721;28;20056;-73
2023/03/15 07:40:31;;;;;;;2.38;0.88;;;;;;;4.82;87.90;100699.63;5026870;28;20045;-74
2023/03/15 07:43:00;;;;;;;1.90;0.70;;;;;;;4.79;88.31;100698.63;5027279;28;20057;-73
2023/03/15 07:45:28;;;;;;;1.00;0.63;;;;;;;4.73;88.17;100701.72;5028331;28;20053;-73
2023/03/15 07:47:57;;;;;;;0.93;0.57;;;;;;;4.64;89.29;100711.50;5018372;28;20049;-73
2023/03/15 07:50:25;;;;;;;4.88;1.23;;;;;;;4.59;88.85;100710.38;5006780;28;20052;-74
2023/03/15 07:52:54;;;;;;;4.65;0.85;;;;;;;4.56;88.80;100721.38;5007550;28;20049;-73
2023/03/15 07:55:24;;;;;;;16.80;1.15;;;;;;;4.54;88.55;100722.97;5006185;28;20754;-73
2023/03/15 07:57:53;;;;;;;0.73;0.30;;;;;;;4.46;88.89;100728.47;5008581;28;20056;-73
2023/03/15 08:00:22;;;;;;;1.77;1.15;;;;;;;4.39;90.15;100734.94;5005093;28;20054;-73
2023/03/15 08:02:51;;;;;;;1.40;0.57;;;;;;;4.35;90.33;100736.47;5004118;28;20045;-73
2023/03/15 08:05:19;;;;;;;1.27;0.75;;;;;;;4.33;90.55;100748.31;5005887;28;20049;-73
2023/03/15 08:07:48;;;;;;;1.15;0.45;;;;;;;4.31;90.82;100749.91;5009002;28;20046;-73
2023/03/15 08:10:18;;;;;;;2.80;0.80;;;;;;;4.28;90.29;100754.84;5007051;28;20166;-73
2023/03/15 08:12:48;;;;;;;3.67;0.75;;;;;;;4.27;91.11;100752.22;5003314;28;20050;-74
2023/03/15 08:15:17;;;;;;;2.67;0.88;;;;;;;4.26;90.46;100750.44;5010686;28;20065;-72
2023/03/15 08:17:47;;;;;;;1.38;0.60;;;;;;;4.24;91.08;100759.72;5004526;28;20065;-73
2023/03/15 08:20:18;;;;;;;0.65;0.43;;;;;;;4.22;90.47;100759.66;5007897;28;20455;-73
2023/03/15 08:22:47;;;;;;;0.55;0.30;;;;;;;4.18;90.82;100762.84;5003327;28;20108;-72
2023/03/15 08:25:17;;;;;;;2.42;0.68;;;;;;;4.14;91.16;100772.00;5006154;28;20492;-72
2023/03/15 08:27:48;;;;;;;0.57;0.50;;;;;;;4.11;91.61;100771.84;5009391;28;20050;-73
2023/03/15 08:30:17;;;;;;;2.95;0.57;;;;;;;4.09;91.17;100776.00;5006197;28;20144;-72
2023/03/15 08:32:47;;;;;;;0.98;0.43;;;;;;;4.06;90.80;100782.66;5005519;28;20057;-74
2023/03/15 08:35:17;;;;;;;1.23;0.50;;;;;;;4.05;91.16;100786.00;5005891;28;20120;-74
2023/03/15 08:37:46;;;;;;;2.38;0.70;;;;;;;4.03;90.55;100788.44;5010098;28;20124;-74
2023/03/15 08:40:17;;;;;;;1.38;0.50;;;;;;;3.99;89.63;100800.22;5006391;28;20050;-73
2023/03/15 08:42:47;;;;;;;1.75;0.55;;;;;;;3.97;90.10;100804.38;5006912;28;20653;-74
2023/03/15 08:45:16;;;;;;;1.67;0.80;;;;;;;3.93;90.44;100807.53;5005985;28;20053;-73
2023/03/15 08:47:45;;;;;;;2.85;0.85;;;;;;;3.91;90.42;100809.13;5018351;28;20058;-73
2023/03/15 08:50:15;;;;;;;0.55;0.55;;;;;;;3.87;90.50;100820.00;5022272;28;20050;-74
2023/03/15 08:52:44;;;;;;;4.00;0.60;;;;;;;3.78;91.64;100819.47;5024923;28;20056;-74
2023/03/15 08:55:13;;;;;;;0.47;0.38;;;;;;;3.76;92.29;100834.75;5025291;28;20050;-73
2023/03/15 08:57:42;;;;;;;1.95;0.70;;;;;;;3.76;92.39;100842.41;5025086;28;20136;-73
2023/03/15 09:00:19;;;;;;;1.83;0.60;;;;;;;3.77;91.75;100850.97;5025654;28;20111;-73
2023/03/15 09:02:49;;;;;;;0.60;0.38;;;;;;;3.77;92.25;100856.09;5028105;28;20050;-74
2023/03/15 09:05:17;;;;;;;2.42;0.77;;;;;;;3.69;92.53;100842.84;5026128;28;21018;-73
2023/03/15 09:07:46;;;;;;;1.58;0.52;;;;;;;3.77;92.46;100866.31;5028479;28;20103;-73
2023/03/15 09:10:16;;;;;;;1.50;0.80;;;;;;;3.72;92.95;100877.97;5029728;28;20049;-73
2023/03/15 09:12:45;;;;;;;1.10;0.70;;;;;;;3.70;93.81;100874.44;5024143;28;20131;-73
2023/03/15 09:15:16;;;;;;;2.05;0.80;;;;;;;3.74;93.78;100884.06;5028144;28;20056;-73
2023/03/15 09:17:44;;;;;;;2.53;0.70;;;;;;;3.74;93.73;100889.19;5027368;28;20057;-73
2023/03/15 09:20:15;;;;;;;4.05;1.05;;;;;;;3.74;93.67;100904.53;5026528;28;20111;-73
2023/03/15 09:22:44;;;;;;;2.88;0.85;;;;;;;3.75;94.58;100903.75;5027804;28;20060;-73
2023/03/15 09:25:12;;;;;;;1.33;0.47;;;;;;;3.77;95.13;100912.41;5029953;28;20057;-73
2023/03/15 09:27:41;;;;;;;1.13;0.60;;;;;;;3.80;95.23;100917.69;5028839;28;20042;-73
2023/03/15 09:30:10;;;;;;;1.98;0.75;;;;;;;3.80;94.29;100917.69;5029320;28;20507;-73
2023/03/15 09:32:42;;;;;;;1.27;0.50;;;;;;;3.80;94.32;100920.25;5033258;28;20521;-73
2023/03/15 09:35:19;;;;;;;7.28;0.90;;;;;;;3.78;94.16;100929.53;5028661;28;20060;-73
2023/03/15 09:37:48;;;;;;;2.53;1.05;;;;;;;3.78;94.49;100935.53;5029525;28;20046;-74
2023/03/15 09:40:20;;;;;;;2.45;1.00;;;;;;;3.77;94.73;100948.22;5033251;28;20060;-73
2023/03/15 09:43:04;;;;;;;4.18;0.77;;;;;;;3.80;96.28;100950.06;5028808;28;20061;-73
2023/03/15 09:45:54;;;;;;;1.42;0.93;;;;;;;3.80;97.15;100963.75;5026118;28;20053;-73
2023/03/15 09:48:30;;;;;;;2.40;0.90;;;;;;;3.76;97.62;100967.81;5028608;28;20061;-73
2023/03/15 09:51:05;;;;;;;1.23;0.93;;;;;;;3.77;97.36;100978.94;5026336;28;20077;-74
2023/03/15 09:53:39;;;;;;;1.00;0.68;;;;;;;3.77;98.58;100973.81;5025441;28;20042;-73
2023/03/15 09:56:22;;;;;;;3.55;0.60;;;;;;;3.82;98.05;100976.66;5026170;28;20056;-73
2023/03/15 09:58:54;;;;;;;2.00;1.02;;;;;;;3.85;98.25;100984.50;5029630;28;20041;-73
2023/03/15 10:01:29;;;;;;;4.10;1.05;;;;;;;3.89;98.62;100987.34;5027276;28;20049;-73
2023/03/15 10:04:08;;;;;;;1.85;1.20;;;;;;;3.93;98.35;100989.31;5028319;28;20056;-73
2023/03/15 10:06:45;;;;;;;0.95;0.65;;;;;;;3.97;98.45;100996.38;5027722;28;20609;-73
2023/03/15 10:09:18;;;;;;;0.95;0.68;;;;;;;4.01;98.03;101004.22;5027792;28;20053;-73
2023/03/15 10:11:54;;;;;;;2.63;0.75;;;;;;;4.05;99.20;101016.44;5027407;28;20123;-73
2023/03/15 10:14:33;;;;;;;1.05;0.73;;;;;;;4.09;99.60;101020.94;5021824;28;20057;-73
2023/03/15 10:17:07;;;;;;;1.88;0.85;;;;;;;4.12;99.24;101023.69;5028653;28;20049;-73
2023/03/15 10:19:45;;;;;;;1.45;0.65;;;;;;;4.16;100.00;101030.75;5027194;28;20143;-73
2023/03/15 10:22:22;;;;;;;3.45;0.70;;;;;;;4.20;100.00;101025.91;5027243;28;20543;-73
2023/03/15 10:24:54;;;;;;;2.40;0.90;;;;;;;4.08;100.00;101017.50;5026363;28;20045;-73
2023/03/15 10:27:26;;;;;;;2.22;0.90;;;;;;;4.11;100.00;101027.06;5028098;28;20041;-74
2023/03/15 10:29:58;;;;;;;4.13;0.70;;;;;;;4.08;100.00;101026.88;5026955;28;20061;-72
2023/03/15 10:32:29;;;;;;;3.00;0.65;;;;;;;4.07;100.00;101025.09;5027094;28;20123;-72
2023/03/15 10:34:59;;;;;;;1.80;0.70;;;;;;;4.01;100.00;101030.75;5024809;28;20064;-73
2023/03/15 10:37:28;;;;;;;1.88;0.80;;;;;;;3.98;100.00;101031.41;5028153;28;20061;-73
2023/03/15 10:39:59;;;;;;;2.72;1.02;;;;;;;3.98;100.00;101031.41;5029535;28;20103;-73
2023/03/15 10:42:34;;;;;;;2.58;0.98;;;;;;;3.99;100.00;101032.31;5027251;28;20130;-74
2023/03/15 10:45:15;;;;;;;1.35;0.70;;;;;;;4.04;100.00;101040.28;5028380;28;20057;-74
2023/03/15 10:47:45;;;;;;;1.38;0.68;;;;;;;4.08;100.00;101034.56;5019601;28;20144;-73
2023/03/15 10:50:25;;;;;;;1.38;0.35;;;;;;;4.11;100.00;101034.72;5008708;28;20054;-73
2023/03/15 10:52:57;;;;;;;4.10;0.80;;;;;;;4.12;100.00;101034.84;5006970;28;20053;-73
2023/03/15 10:55:34;;;;;;;1.88;0.45;;;;;;;4.16;100.00;101043.56;5007827;28;20056;-73
2023/03/15 10:58:22;;;;;;;0.47;0.45;;;;;;;4.21;100.00;101054.97;5008962;28;20053;-74
2023/03/15 11:00:54;;;;;;;1.38;0.52;;;;;;;4.25;100.00;101056.91;5004456;28;20054;-72
2023/03/15 11:03:25;;;;;;;1.38;0.65;;;;;;;4.29;100.00;101060.56;5007886;28;20141;-73
2023/03/15 11:05:57;;;;;;;0.95;0.30;;;;;;;4.31;100.00;101066.66;5006857;28;20100;-73
2023/03/15 11:08:36;;;;;;;1.20;0.47;;;;;;;4.33;100.00;101080.41;5006463;28;20053;-72
2023/03/15 11:11:05;;;;;;;1.33;0.65;;;;;;;4.33;100.00;101078.78;5007563;28;20111;-72
2023/03/15 11:13:35;;;;;;;1.48;0.60;;;;;;;4.34;100.00;101083.09;5008273;28;20042;-72
2023/03/15 11:16:08;;;;;;;1.02;0.50;;;;;;;4.36;100.00;101089.19;5006408;28;20060;-73
2023/03/15 11:18:43;;;;;;;0.82;0.50;;;;;;;4.37;100.00;101085.81;5006422;28;20065;-73
2023/03/15 11:21:16;;;;;;;1.88;0.60;;;;;;;4.39;100.00;101085.91;5007341;28;20038;-73
2023/03/15 11:23:47;;;;;;;1.52;0.63;;;;;;;4.42;100.00;101096.34;5005433;28;20856;-73
2023/03/15 11:26:19;;;;;;;1.10;0.60;;;;;;;4.42;100.00;101096.34;5008169;28;20767;-72
2023/03/15 11:28:51;;;;;;;0.85;0.60;;;;;;;4.46;100.00;101099.97;5006643;28;20046;-72
2023/03/15 11:31:20;;;;;;;;;;;;;;;4.46;100.00;101107.66;5008738;28;20136;-72
2023/03/15 11:33:54;;;;;;;1.50;0.50;;;;;;;4.48;100.00;101111.22;5008726;28;20406;-72
2023/03/15 11:36:28;;;;;;;1.48;0.60;;;;;;;4.51;100.00;101116.50;5008483;28;20120;-73
2023/03/15 11:38:59;;;;;;;2.63;0.50;;;;;;;4.53;100.00;101120.94;5008265;28;20042;-73
2023/03/15 11:41:34;;;;;;;3.35;0.73;;;;;;;4.56;100.00;101122.81;5010843;28;20184;-72
2023/03/15 11:44:13;;;;;;;3.80;0.60;;;;;;;4.60;100.00;101133.34;5006928;28;20053;-72
2023/03/15 11:47:02;;;;;;;3.38;0.95;;;;;;;4.64;100.00;101136.94;5006132;28;20069;-72